VRG2340 PTSA-PKWA
Flight info
| Callsign | VRG2340 |
|---|---|
| Flight time | 1h 0m |
| Altitude | 35000 |
| Route | UKS STEFF |
| Aircraft | B738/M-SDE2E3FGHIRWXY/LB1 |
Departure
| Time | 2026-04-27 23:15 |
|---|---|
| Airport | Kosrae International Airport (PTSA) |
Arrival
| Time | 2026-04-28 00:15 |
|---|---|
| Airport | Bucholz Army Air Field (PKWA) |
| Time | Latitude | Longitude | Altitude | Speed | Heading |
|---|---|---|---|---|---|
| 2026-04-27 22:49 | 5.35311 | 162.95554 | 24 ft | 0 kts | 60° |
| 2026-04-27 23:10 | 5.35316 | 162.95561 | 24 ft | 3 kts | 59° |
| 2026-04-27 23:10 | 5.35325 | 162.95572 | 26 ft | 0 kts | 32° |
| 2026-04-27 23:11 | 5.35342 | 162.95575 | 28 ft | 5 kts | 355° |
| 2026-04-27 23:11 | 5.35387 | 162.95560 | 29 ft | 0 kts | 327° |
| 2026-04-27 23:11 | 5.35388 | 162.95560 | 29 ft | 0 kts | 327° |
| 2026-04-27 23:12 | 5.35420 | 162.95538 | 29 ft | 11 kts | 327° |
| 2026-04-27 23:12 | 5.35446 | 162.95470 | 29 ft | 11 kts | 249° |
| 2026-04-27 23:12 | 5.35403 | 162.95406 | 29 ft | 11 kts | 235° |
| 2026-04-27 23:12 | 5.35351 | 162.95329 | 29 ft | 13 kts | 235° |
| 2026-04-27 23:13 | 5.35296 | 162.95262 | 29 ft | 9 kts | 211° |
| 2026-04-27 23:13 | 5.35258 | 162.95229 | 29 ft | 4 kts | 249° |
| 2026-04-27 23:13 | 5.35280 | 162.95232 | 29 ft | 2 kts | 15° |
| 2026-04-27 23:13 | 5.35282 | 162.95235 | 29 ft | 0 kts | 50° |
| 2026-04-27 23:14 | 5.35313 | 162.95273 | 29 ft | 37 kts | 50° |
| 2026-04-27 23:14 | 5.35638 | 162.95744 | 30 ft | 122 kts | 56° |
| 2026-04-27 23:15 | 5.36231 | 162.96606 | 361 ft | 163 kts | 56° |
| 2026-04-27 23:15 | 5.36860 | 162.97572 | 1171 ft | 174 kts | 58° |
| 2026-04-27 23:15 | 5.37473 | 162.98630 | 2056 ft | 178 kts | 63° |
| 2026-04-27 23:15 | 5.38016 | 162.99751 | 2777 ft | 189 kts | 65° |
| 2026-04-27 23:16 | 5.38565 | 163.00993 | 3409 ft | 206 kts | 67° |
| 2026-04-27 23:16 | 5.39126 | 163.02379 | 4058 ft | 223 kts | 68° |
| 2026-04-27 23:16 | 5.39722 | 163.03871 | 4672 ft | 243 kts | 68° |
| 2026-04-27 23:16 | 5.40382 | 163.05527 | 5320 ft | 263 kts | 68° |
| 2026-04-27 23:17 | 5.41078 | 163.07278 | 5981 ft | 281 kts | 68° |
| 2026-04-27 23:17 | 5.41852 | 163.09087 | 6844 ft | 289 kts | 60° |
| 2026-04-27 23:17 | 5.43225 | 163.10535 | 7801 ft | 293 kts | 33° |
| 2026-04-27 23:17 | 5.45010 | 163.11554 | 8725 ft | 297 kts | 30° |
| 2026-04-27 23:18 | 5.46749 | 163.12646 | 9580 ft | 303 kts | 37° |
| 2026-04-27 23:18 | 5.48353 | 163.14049 | 10369 ft | 311 kts | 47° |
| 2026-04-27 23:18 | 5.49783 | 163.15729 | 10979 ft | 324 kts | 53° |
| 2026-04-27 23:18 | 5.51148 | 163.17601 | 11538 ft | 339 kts | 56° |
| 2026-04-27 23:19 | 5.52505 | 163.19557 | 12217 ft | 348 kts | 56° |
| 2026-04-27 23:19 | 5.53906 | 163.21578 | 13023 ft | 353 kts | 56° |
| 2026-04-27 23:19 | 5.55326 | 163.23601 | 13801 ft | 357 kts | 56° |
| 2026-04-27 23:19 | 5.56769 | 163.25635 | 14634 ft | 359 kts | 56° |
| 2026-04-27 23:20 | 5.58217 | 163.27666 | 15458 ft | 360 kts | 55° |
| 2026-04-27 23:20 | 5.59683 | 163.29717 | 16187 ft | 364 kts | 55° |
| 2026-04-27 23:20 | 5.61155 | 163.31776 | 16909 ft | 366 kts | 55° |
| 2026-04-27 23:20 | 5.62647 | 163.33867 | 17642 ft | 368 kts | 55° |
| 2026-04-27 23:21 | 5.64130 | 163.35948 | 18295 ft | 372 kts | 55° |
| 2026-04-27 23:21 | 5.65658 | 163.38100 | 18925 ft | 376 kts | 55° |
| 2026-04-27 23:21 | 5.67173 | 163.40233 | 19582 ft | 378 kts | 55° |
| 2026-04-27 23:21 | 5.68694 | 163.42371 | 20163 ft | 382 kts | 55° |
| 2026-04-27 23:22 | 5.70249 | 163.44548 | 20714 ft | 386 kts | 55° |
| 2026-04-27 23:22 | 5.71823 | 163.46750 | 21321 ft | 388 kts | 55° |
| 2026-04-27 23:22 | 5.73400 | 163.48955 | 21896 ft | 390 kts | 55° |
| 2026-04-27 23:22 | 5.74980 | 163.51170 | 22430 ft | 394 kts | 55° |
| 2026-04-27 23:23 | 5.76567 | 163.53401 | 22998 ft | 396 kts | 55° |
| 2026-04-27 23:23 | 5.78196 | 163.55693 | 23515 ft | 399 kts | 55° |
| 2026-04-27 23:23 | 5.79830 | 163.57991 | 24013 ft | 403 kts | 55° |
| 2026-04-27 23:23 | 5.81461 | 163.60284 | 24498 ft | 407 kts | 55° |
| 2026-04-27 23:24 | 5.83108 | 163.62598 | 24991 ft | 410 kts | 55° |
| 2026-04-27 23:24 | 5.84773 | 163.64935 | 25498 ft | 412 kts | 55° |
| 2026-04-27 23:24 | 5.86447 | 163.67285 | 25963 ft | 415 kts | 56° |
| 2026-04-27 23:24 | 5.88150 | 163.69678 | 26452 ft | 418 kts | 55° |
| 2026-04-27 23:25 | 5.89842 | 163.72052 | 26882 ft | 421 kts | 56° |
| 2026-04-27 23:25 | 5.91545 | 163.74442 | 27330 ft | 424 kts | 56° |
| 2026-04-27 23:25 | 5.93252 | 163.76837 | 27809 ft | 425 kts | 56° |
| 2026-04-27 23:25 | 5.94997 | 163.79286 | 28196 ft | 429 kts | 56° |
| 2026-04-27 23:26 | 5.96733 | 163.81723 | 28642 ft | 431 kts | 56° |
| 2026-04-27 23:26 | 5.98479 | 163.84175 | 29083 ft | 434 kts | 56° |
| 2026-04-27 23:26 | 6.00244 | 163.86655 | 29494 ft | 437 kts | 56° |
| 2026-04-27 23:26 | 6.02003 | 163.89127 | 29875 ft | 440 kts | 56° |
| 2026-04-27 23:27 | 6.03785 | 163.91628 | 30331 ft | 441 kts | 55° |
| 2026-04-27 23:27 | 6.05553 | 163.94110 | 30953 ft | 438 kts | 56° |
| 2026-04-27 23:27 | 6.07314 | 163.96585 | 31571 ft | 434 kts | 56° |
| 2026-04-27 23:27 | 6.09068 | 163.99049 | 32154 ft | 432 kts | 56° |
| 2026-04-27 23:28 | 6.10818 | 164.01511 | 32683 ft | 430 kts | 55° |
| 2026-04-27 23:28 | 6.12541 | 164.03934 | 33210 ft | 429 kts | 56° |
| 2026-04-27 23:28 | 6.14266 | 164.06360 | 33770 ft | 427 kts | 56° |
| 2026-04-27 23:28 | 6.15424 | 164.07988 | 34165 ft | 426 kts | 56° |
| 2026-04-27 23:29 | 6.17690 | 164.11177 | 34839 ft | 423 kts | 56° |
| 2026-04-27 23:29 | 6.19410 | 164.13597 | 34882 ft | 426 kts | 56° |
| 2026-04-27 23:29 | 6.22830 | 164.18410 | 34884 ft | 420 kts | 56° |
| 2026-04-27 23:30 | 6.26257 | 164.23231 | 34883 ft | 421 kts | 56° |
| 2026-04-27 23:30 | 6.29678 | 164.28049 | 34885 ft | 421 kts | 56° |
| 2026-04-27 23:31 | 6.33086 | 164.32848 | 34884 ft | 421 kts | 56° |
| 2026-04-27 23:31 | 6.36494 | 164.37650 | 34887 ft | 420 kts | 56° |
| 2026-04-27 23:32 | 6.39898 | 164.42445 | 34888 ft | 420 kts | 56° |
| 2026-04-27 23:32 | 6.43281 | 164.47212 | 34895 ft | 420 kts | 56° |
| 2026-04-27 23:33 | 6.46683 | 164.52010 | 34900 ft | 420 kts | 56° |
| 2026-04-27 23:33 | 6.50085 | 164.56805 | 34899 ft | 420 kts | 56° |
| 2026-04-27 23:34 | 6.53477 | 164.61587 | 34903 ft | 419 kts | 56° |
| 2026-04-27 23:34 | 6.56885 | 164.66393 | 34903 ft | 420 kts | 56° |
| 2026-04-27 23:35 | 6.60264 | 164.71156 | 34899 ft | 418 kts | 56° |
| 2026-04-27 23:35 | 6.63647 | 164.75929 | 34900 ft | 420 kts | 56° |
| 2026-04-27 23:36 | 6.67054 | 164.80733 | 34899 ft | 420 kts | 56° |
| 2026-04-27 23:36 | 6.70437 | 164.85512 | 34898 ft | 421 kts | 56° |
| 2026-04-27 23:37 | 6.73812 | 164.90280 | 34901 ft | 420 kts | 56° |
| 2026-04-27 23:37 | 6.77234 | 164.95114 | 34901 ft | 420 kts | 56° |
| 2026-04-27 23:38 | 6.80633 | 164.99922 | 34899 ft | 420 kts | 56° |
| 2026-04-27 23:38 | 6.84014 | 165.04701 | 34902 ft | 420 kts | 56° |
| 2026-04-27 23:39 | 6.87432 | 165.09529 | 34902 ft | 420 kts | 56° |
| 2026-04-27 23:39 | 6.90806 | 165.14298 | 34901 ft | 420 kts | 56° |
| 2026-04-27 23:40 | 6.94202 | 165.19093 | 34901 ft | 418 kts | 56° |
| 2026-04-27 23:40 | 6.97584 | 165.23877 | 34903 ft | 421 kts | 56° |
| 2026-04-27 23:41 | 7.00964 | 165.28607 | 34897 ft | 418 kts | 55° |
| 2026-04-27 23:41 | 7.04434 | 165.33315 | 34891 ft | 419 kts | 55° |
| 2026-04-27 23:42 | 7.07921 | 165.38020 | 34889 ft | 418 kts | 54° |
| 2026-04-27 23:42 | 7.11383 | 165.42708 | 34885 ft | 418 kts | 55° |
| 2026-04-27 23:43 | 7.14843 | 165.47406 | 34886 ft | 418 kts | 55° |
| 2026-04-27 23:43 | 7.18310 | 165.52116 | 34887 ft | 419 kts | 55° |
| 2026-04-27 23:44 | 7.21769 | 165.56818 | 34886 ft | 418 kts | 55° |
| 2026-04-27 23:44 | 7.25220 | 165.61513 | 34885 ft | 418 kts | 55° |
| 2026-04-27 23:45 | 7.28702 | 165.66246 | 34887 ft | 418 kts | 55° |
| 2026-04-27 23:45 | 7.32145 | 165.70927 | 34886 ft | 419 kts | 55° |
| 2026-04-27 23:46 | 7.35600 | 165.75626 | 34884 ft | 418 kts | 55° |
| 2026-04-27 23:46 | 7.39058 | 165.80335 | 34883 ft | 418 kts | 55° |
| 2026-04-27 23:47 | 7.42540 | 165.85069 | 34884 ft | 420 kts | 55° |
| 2026-04-27 23:47 | 7.45990 | 165.89758 | 34882 ft | 418 kts | 55° |
| 2026-04-27 23:48 | 7.49468 | 165.94484 | 34199 ft | 423 kts | 55° |
| 2026-04-27 23:48 | 7.51218 | 165.96870 | 33606 ft | 420 kts | 55° |
| 2026-04-27 23:48 | 7.52924 | 165.99191 | 33125 ft | 415 kts | 55° |
| 2026-04-27 23:49 | 7.54642 | 166.01529 | 32645 ft | 409 kts | 56° |
| 2026-04-27 23:49 | 7.56302 | 166.03798 | 32231 ft | 405 kts | 56° |
| 2026-04-27 23:49 | 7.57973 | 166.06078 | 31790 ft | 402 kts | 56° |
| 2026-04-27 23:49 | 7.59624 | 166.08331 | 31336 ft | 401 kts | 55° |
| 2026-04-27 23:50 | 7.61284 | 166.10596 | 30872 ft | 400 kts | 55° |
| 2026-04-27 23:50 | 7.62940 | 166.12856 | 30422 ft | 398 kts | 55° |
| 2026-04-27 23:50 | 7.64570 | 166.15080 | 29976 ft | 395 kts | 56° |
| 2026-04-27 23:50 | 7.66207 | 166.17316 | 29528 ft | 393 kts | 55° |
| 2026-04-27 23:51 | 7.67824 | 166.19518 | 29086 ft | 389 kts | 56° |
| 2026-04-27 23:51 | 7.69422 | 166.21699 | 28651 ft | 387 kts | 56° |
| 2026-04-27 23:51 | 7.70997 | 166.23850 | 28228 ft | 385 kts | 55° |
| 2026-04-27 23:51 | 7.72587 | 166.26019 | 27789 ft | 383 kts | 55° |
| 2026-04-27 23:52 | 7.74168 | 166.28169 | 27351 ft | 381 kts | 54° |
| 2026-04-27 23:52 | 7.75755 | 166.30330 | 26917 ft | 379 kts | 55° |
| 2026-04-27 23:52 | 7.77312 | 166.32461 | 26492 ft | 377 kts | 55° |
| 2026-04-27 23:52 | 7.78852 | 166.34570 | 26064 ft | 374 kts | 56° |
| 2026-04-27 23:53 | 7.80388 | 166.36671 | 25646 ft | 372 kts | 55° |
| 2026-04-27 23:53 | 7.81924 | 166.38768 | 25218 ft | 369 kts | 55° |
| 2026-04-27 23:53 | 7.83445 | 166.40848 | 24797 ft | 366 kts | 56° |
| 2026-04-27 23:53 | 7.84963 | 166.42923 | 24377 ft | 364 kts | 55° |
| 2026-04-27 23:54 | 7.86463 | 166.44974 | 23971 ft | 362 kts | 55° |
| 2026-04-27 23:54 | 7.87951 | 166.47006 | 23570 ft | 359 kts | 55° |
| 2026-04-27 23:54 | 7.89446 | 166.49048 | 23165 ft | 357 kts | 56° |
| 2026-04-27 23:54 | 7.90914 | 166.51054 | 22760 ft | 354 kts | 56° |
| 2026-04-27 23:55 | 7.92367 | 166.53044 | 22362 ft | 352 kts | 55° |
| 2026-04-27 23:55 | 7.93814 | 166.55023 | 21971 ft | 351 kts | 55° |
| 2026-04-27 23:55 | 7.95278 | 166.57027 | 21572 ft | 349 kts | 55° |
| 2026-04-27 23:55 | 7.96704 | 166.58984 | 21184 ft | 346 kts | 56° |
| 2026-04-27 23:56 | 7.98142 | 166.60962 | 20794 ft | 343 kts | 55° |
| 2026-04-27 23:56 | 7.99552 | 166.62898 | 20401 ft | 340 kts | 55° |
| 2026-04-27 23:56 | 8.00966 | 166.64835 | 20013 ft | 337 kts | 55° |
| 2026-04-27 23:56 | 8.02342 | 166.66725 | 19635 ft | 335 kts | 56° |
| 2026-04-27 23:57 | 8.03715 | 166.68613 | 19211 ft | 333 kts | 56° |
| 2026-04-27 23:57 | 8.05076 | 166.70477 | 18830 ft | 330 kts | 56° |
| 2026-04-27 23:57 | 8.06434 | 166.72331 | 18461 ft | 327 kts | 56° |
| 2026-04-27 23:57 | 8.07783 | 166.74179 | 18095 ft | 324 kts | 56° |
| 2026-04-27 23:58 | 8.09106 | 166.75993 | 17759 ft | 319 kts | 56° |
| 2026-04-27 23:58 | 8.10419 | 166.77791 | 17417 ft | 317 kts | 55° |
| 2026-04-27 23:58 | 8.11732 | 166.79584 | 17069 ft | 314 kts | 55° |
| 2026-04-27 23:58 | 8.13015 | 166.81339 | 16748 ft | 311 kts | 55° |
| 2026-04-27 23:59 | 8.14307 | 166.83110 | 16428 ft | 311 kts | 55° |
| 2026-04-27 23:59 | 8.15584 | 166.84863 | 16093 ft | 309 kts | 55° |
| 2026-04-27 23:59 | 8.16844 | 166.86595 | 15759 ft | 306 kts | 55° |
| 2026-04-27 23:59 | 8.18101 | 166.88316 | 15421 ft | 304 kts | 54° |
| 2026-04-28 00:00 | 8.19353 | 166.90027 | 15082 ft | 301 kts | 55° |
| 2026-04-28 00:00 | 8.20595 | 166.91724 | 14747 ft | 300 kts | 55° |
| 2026-04-28 00:00 | 8.21838 | 166.93427 | 14420 ft | 300 kts | 54° |
| 2026-04-28 00:00 | 8.23075 | 166.95131 | 14089 ft | 297 kts | 54° |
| 2026-04-28 00:01 | 8.24287 | 166.96796 | 13773 ft | 296 kts | 54° |
| 2026-04-28 00:01 | 8.25530 | 166.98471 | 13456 ft | 295 kts | 54° |
| 2026-04-28 00:01 | 8.26734 | 167.00145 | 13127 ft | 295 kts | 55° |
| 2026-04-28 00:01 | 8.27926 | 167.01837 | 12809 ft | 291 kts | 54° |
| 2026-04-28 00:02 | 8.29115 | 167.03479 | 12487 ft | 290 kts | 54° |
| 2026-04-28 00:02 | 8.30324 | 167.05118 | 12167 ft | 289 kts | 53° |
| 2026-04-28 00:02 | 8.31511 | 167.06718 | 11854 ft | 286 kts | 54° |
| 2026-04-28 00:02 | 8.32699 | 167.08331 | 11564 ft | 284 kts | 54° |
| 2026-04-28 00:03 | 8.33875 | 167.09944 | 11243 ft | 285 kts | 54° |
| 2026-04-28 00:03 | 8.35039 | 167.11537 | 10927 ft | 282 kts | 54° |
| 2026-04-28 00:03 | 8.36192 | 167.13117 | 10622 ft | 279 kts | 54° |
| 2026-04-28 00:03 | 8.37337 | 167.14691 | 10326 ft | 277 kts | 54° |
| 2026-04-28 00:04 | 8.38473 | 167.16252 | 10030 ft | 275 kts | 54° |
| 2026-04-28 00:04 | 8.40723 | 167.19325 | 9440 ft | 268 kts | 54° |
| 2026-04-28 00:04 | 8.41830 | 167.20840 | 9153 ft | 265 kts | 54° |
| 2026-04-28 00:05 | 8.42923 | 167.22342 | 8862 ft | 264 kts | 54° |
| 2026-04-28 00:05 | 8.44004 | 167.23831 | 8591 ft | 261 kts | 54° |
| 2026-04-28 00:05 | 8.45077 | 167.25310 | 8311 ft | 261 kts | 54° |
| 2026-04-28 00:05 | 8.45790 | 167.26288 | 8112 ft | 260 kts | 54° |
| 2026-04-28 00:06 | 8.47217 | 167.28249 | 7763 ft | 257 kts | 54° |
| 2026-04-28 00:06 | 8.48274 | 167.29700 | 7457 ft | 256 kts | 55° |
| 2026-04-28 00:06 | 8.49337 | 167.31157 | 7213 ft | 256 kts | 55° |
| 2026-04-28 00:06 | 8.50385 | 167.32599 | 6947 ft | 255 kts | 56° |
| 2026-04-28 00:07 | 8.51427 | 167.34036 | 6687 ft | 254 kts | 55° |
| 2026-04-28 00:07 | 8.52472 | 167.35481 | 6413 ft | 254 kts | 56° |
| 2026-04-28 00:07 | 8.53509 | 167.36903 | 6148 ft | 252 kts | 56° |
| 2026-04-28 00:07 | 8.54554 | 167.38333 | 5875 ft | 249 kts | 56° |
| 2026-04-28 00:08 | 8.55576 | 167.39754 | 5604 ft | 250 kts | 56° |
| 2026-04-28 00:08 | 8.56590 | 167.41180 | 5327 ft | 247 kts | 57° |
| 2026-04-28 00:08 | 8.57530 | 167.42616 | 5070 ft | 243 kts | 57° |
| 2026-04-28 00:08 | 8.58441 | 167.44069 | 4794 ft | 241 kts | 59° |
| 2026-04-28 00:09 | 8.59382 | 167.45482 | 4539 ft | 240 kts | 55° |
| 2026-04-28 00:09 | 8.60439 | 167.46759 | 4282 ft | 240 kts | 49° |
| 2026-04-28 00:09 | 8.61603 | 167.47978 | 4011 ft | 238 kts | 51° |
| 2026-04-28 00:09 | 8.62610 | 167.49313 | 3770 ft | 239 kts | 58° |
| 2026-04-28 00:10 | 8.63535 | 167.50674 | 3517 ft | 236 kts | 58° |
| 2026-04-28 00:10 | 8.64486 | 167.52034 | 3255 ft | 232 kts | 56° |
| 2026-04-28 00:10 | 8.65419 | 167.53337 | 3000 ft | 224 kts | 57° |
| 2026-04-28 00:10 | 8.66263 | 167.54605 | 2766 ft | 215 kts | 63° |
| 2026-04-28 00:11 | 8.66802 | 167.55984 | 2609 ft | 203 kts | 73° |
| 2026-04-28 00:11 | 8.67052 | 167.56868 | 2528 ft | 196 kts | 75° |
| 2026-04-28 00:11 | 8.67553 | 167.58581 | 2356 ft | 182 kts | 73° |
| 2026-04-28 00:11 | 8.67930 | 167.59763 | 2229 ft | 172 kts | 72° |
| 2026-04-28 00:12 | 8.68284 | 167.60887 | 2075 ft | 162 kts | 73° |
| 2026-04-28 00:12 | 8.68612 | 167.61954 | 1900 ft | 157 kts | 73° |
| 2026-04-28 00:12 | 8.68930 | 167.62991 | 1763 ft | 146 kts | 73° |
| 2026-04-28 00:12 | 8.69222 | 167.63933 | 1673 ft | 138 kts | 73° |
| 2026-04-28 00:13 | 8.69491 | 167.64822 | 1523 ft | 130 kts | 73° |
| 2026-04-28 00:13 | 8.69763 | 167.65700 | 1333 ft | 128 kts | 73° |
| 2026-04-28 00:13 | 8.70023 | 167.66556 | 1169 ft | 130 kts | 74° |
| 2026-04-28 00:13 | 8.70298 | 167.67425 | 994 ft | 130 kts | 72° |
| 2026-04-28 00:14 | 8.70585 | 167.68303 | 816 ft | 129 kts | 73° |
| 2026-04-28 00:14 | 8.70832 | 167.69141 | 643 ft | 124 kts | 73° |
| 2026-04-28 00:14 | 8.71089 | 167.69978 | 477 ft | 125 kts | 73° |
| 2026-04-28 00:14 | 8.71319 | 167.70825 | 334 ft | 124 kts | 75° |
| 2026-04-28 00:15 | 8.71561 | 167.71651 | 228 ft | 123 kts | 73° |
| 2026-04-28 00:15 | 8.71808 | 167.72499 | 42 ft | 127 kts | 73° |
| 2026-04-28 00:15 | 8.72039 | 167.73247 | 14 ft | 80 kts | 73° |
| 2026-04-28 00:15 | 8.72134 | 167.73552 | 17 ft | 25 kts | 72° |
| 2026-04-28 00:16 | 8.72185 | 167.73706 | 22 ft | 20 kts | 71° |
| 2026-04-28 00:16 | 8.72225 | 167.73830 | 26 ft | 16 kts | 77° |
| 2026-04-28 00:16 | 8.72248 | 167.73929 | 28 ft | 13 kts | 77° |
| 2026-04-28 00:16 | 8.72302 | 167.73979 | 29 ft | 9 kts | 359° |
| 2026-04-28 00:17 | 8.72359 | 167.73965 | 31 ft | 6 kts | 346° |
| 2026-04-28 00:17 | 8.72402 | 167.73955 | 32 ft | 5 kts | 347° |
| 2026-04-28 00:17 | 8.72435 | 167.73947 | 33 ft | 3 kts | 348° |
| 2026-04-28 00:17 | 8.72463 | 167.73940 | 35 ft | 4 kts | 344° |
| 2026-04-28 00:18 | 8.72483 | 167.73933 | 38 ft | 2 kts | 343° |
| 2026-04-28 00:18 | 8.72525 | 167.73924 | 41 ft | 10 kts | 356° |
| 2026-04-28 00:18 | 8.72609 | 167.73943 | 51 ft | 14 kts | 24° |
| 2026-04-28 00:18 | 8.72699 | 167.73994 | 48 ft | 15 kts | 44° |
| 2026-04-28 00:19 | 8.72730 | 167.74065 | 44 ft | 0 kts | 71° |